Time;durP1;ratioP1;P1;durP2;ratioP2;P2;SDS_P1;SDS_P2;PMS_P1;PMS_P2;Temp;Humidity;BMP_temperature;BMP_pressure;BME280_temperature;BME280_humidity;BME280_pressure;Samples;Min_cycle;Max_cycle;Signal;HPM_P1;HPM_P2
2021/11/09 00:01:50;;;;;;;28.17;12.25;;;12.10;99.90;;;;;;5065700;28;20052;-82
2021/11/09 00:04:25;;;;;;;28.08;11.82;;;12.10;99.90;;;;;;5048420;28;20688;-81
2021/11/09 00:07:11;;;;;;;27.05;10.65;;;12.10;99.90;;;;;;5055313;28;20056;-82
2021/11/09 00:10:06;;;;;;;28.42;11.82;;;12.20;99.90;;;;;;5055504;28;20041;-82
2021/11/09 00:12:37;;;;;;;28.63;11.05;;;12.10;99.90;;;;;;5058493;28;20040;-82
2021/11/09 00:15:09;;;;;;;24.17;11.85;;;12.10;99.90;;;;;;5066105;28;20049;-81
2021/11/09 00:17:39;;;;;;;;;;;12.10;99.90;;;;;;5077696;28;20051;-81
2021/11/09 00:20:16;;;;;;;25.88;11.05;;;12.10;99.90;;;;;;5058750;28;19920;-80
2021/11/09 00:22:44;;;;;;;28.60;12.25;;;12.10;99.90;;;;;;5065621;28;20032;-81
2021/11/09 00:25:14;;;;;;;26.05;9.52;;;12.10;99.90;;;;;;5065077;28;20045;-80
2021/11/09 00:27:42;;;;;;;26.85;12.60;;;12.20;99.90;;;;;;5065401;28;20051;-79
2021/11/09 00:30:12;;;;;;;26.30;10.77;;;11.60;99.90;;;;;;5058549;28;20051;-79
2021/11/09 00:32:44;;;;;;;23.70;13.57;;;12.10;99.90;;;;;;5047251;28;20048;-80
2021/11/09 00:35:22;;;;;;;24.10;11.88;;;12.20;99.90;;;;;;5055181;28;20041;-81
2021/11/09 00:37:51;;;;;;;24.33;10.05;;;12.10;99.90;;;;;;5050178;28;20049;-80
2021/11/09 00:40:24;;;;;;;24.35;11.07;;;12.10;99.90;;;;;;5041021;28;20049;-80
2021/11/09 00:42:52;;;;;;;28.98;11.98;;;12.10;99.90;;;;;;5023395;28;20046;-82
2021/11/09 00:45:21;;;;;;;23.20;9.95;;;12.20;99.90;;;;;;5042859;28;20066;-81
2021/11/09 00:47:49;;;;;;;21.73;10.65;;;12.10;99.90;;;;;;5035915;28;20052;-80
2021/11/09 00:50:20;;;;;;;18.52;8.75;;;12.20;99.90;;;;;;4693249;28;10001530;-82
2021/11/09 00:52:48;;;;;;;25.05;12.10;;;12.20;99.90;;;;;;5025882;28;20257;-81
2021/11/09 00:55:16;;;;;;;31.45;10.88;;;12.20;99.90;;;;;;5037418;28;20057;-84
2021/11/09 00:57:47;;;;;;;25.73;10.98;;;12.20;99.90;;;;;;5038559;28;20045;-85
2021/11/09 01:00:18;;;;;;;27.17;12.32;;;12.20;99.90;;;;;;5021765;28;20056;-79
2021/11/09 01:02:49;;;;;;;25.58;11.30;;;11.30;99.90;;;;;;5024744;28;20049;-82
2021/11/09 01:05:23;;;;;;;20.98;10.93;;;12.30;99.90;;;;;;5024715;28;20050;-81
2021/11/09 01:07:58;;;;;;;23.25;10.93;;;12.30;99.90;;;;;;5025741;28;20045;-84
2021/11/09 01:10:29;;;;;;;24.40;10.68;;;12.30;99.90;;;;;;5042357;28;20053;-80
2021/11/09 01:12:58;;;;;;;27.02;11.77;;;12.30;99.90;;;;;;5025754;28;20053;-81
2021/11/09 01:15:27;;;;;;;25.38;12.15;;;12.30;99.90;;;;;;5040442;28;20057;-81
2021/11/09 01:17:57;;;;;;;25.02;11.52;;;12.40;99.90;;;;;;5022373;28;20068;-80
2021/11/09 01:20:27;;;;;;;26.40;12.35;;;12.40;99.90;;;;;;5042370;28;20601;-81
2021/11/09 01:22:58;;;;;;;31.38;13.13;;;12.30;99.90;;;;;;5041481;28;20373;-80
2021/11/09 01:25:27;;;;;;;25.63;12.98;;;12.40;99.90;;;;;;5028965;28;20064;-82
2021/11/09 01:27:58;;;;;;;34.08;13.73;;;12.40;99.90;;;;;;5039606;28;20173;-81
2021/11/09 01:30:27;;;;;;;29.65;13.07;;;12.40;99.90;;;;;;5006275;28;20057;-80
2021/11/09 01:32:56;;;;;;;28.42;13.32;;;12.40;99.90;;;;;;5041934;28;20053;-80
2021/11/09 01:35:23;;;;;;;31.73;12.63;;;12.40;99.90;;;;;;5044560;28;20047;-80
2021/11/09 01:37:53;;;;;;;30.27;13.60;;;12.40;99.90;;;;;;5044757;28;20049;-81
2021/11/09 01:40:24;;;;;;;26.75;12.82;;;12.40;99.90;;;;;;5044588;28;20049;-81
2021/11/09 01:42:55;;;;;;;28.10;13.95;;;12.40;99.90;;;;;;5061651;28;20048;-80
2021/11/09 01:45:24;;;;;;;28.33;14.35;;;12.40;99.90;;;;;;5026469;28;20053;-79
2021/11/09 01:47:53;;;;;;;33.50;12.82;;;12.50;99.90;;;;;;5032230;28;20780;-80
2021/11/09 01:50:29;;;;;;;25.02;13.00;;;12.40;99.90;;;;;;5042528;28;20209;-80
2021/11/09 01:52:57;;;;;;;26.73;12.93;;;12.50;99.90;;;;;;5041846;28;20046;-82
2021/11/09 01:55:27;;;;;;;26.83;13.60;;;12.50;99.90;;;;;;5039827;28;20052;-80
2021/11/09 01:57:56;;;;;;;30.35;14.27;;;12.50;99.90;;;;;;5023729;28;20901;-82
2021/11/09 02:00:30;;;;;;;24.52;11.43;;;12.50;99.90;;;;;;5023303;28;20087;-80
2021/11/09 02:02:59;;;;;;;31.45;14.38;;;12.50;99.90;;;;;;5023845;28;20050;-80
2021/11/09 02:05:28;;;;;;;27.45;13.68;;;12.50;99.90;;;;;;5023986;28;20064;-80
2021/11/09 02:08:00;;;;;;;27.17;13.30;;;12.50;99.90;;;;;;5035138;28;20064;-83
2021/11/09 02:10:31;;;;;;;24.65;11.45;;;12.50;99.90;;;;;;5030754;28;20605;-82
2021/11/09 02:13:00;;;;;;;25.52;11.63;;;12.50;99.90;;;;;;5003959;28;20055;-80
2021/11/09 02:15:30;;;;;;;33.83;14.07;;;12.50;99.90;;;;;;5043324;28;20045;-82
2021/11/09 02:18:00;;;;;;;24.00;11.90;;;12.50;99.90;;;;;;5045283;28;20053;-80
2021/11/09 02:20:29;;;;;;;28.05;11.85;;;12.50;99.90;;;;;;5044711;28;20045;-82
2021/11/09 02:22:59;;;;;;;27.83;11.57;;;12.50;99.90;;;;;;5044772;28;20625;-82
2021/11/09 02:25:31;;;;;;;29.30;13.43;;;12.60;99.90;;;;;;5042384;28;20061;-80
2021/11/09 02:28:02;;;;;;;26.85;12.38;;;12.50;99.90;;;;;;5023489;28;20068;-80
2021/11/09 02:30:31;;;;;;;24.93;13.53;;;11.70;99.90;;;;;;5063315;28;20044;-80
2021/11/09 02:33:00;;;;;;;26.50;13.18;;;12.60;99.90;;;;;;5078356;28;20055;-81
2021/11/09 02:35:29;;;;;;;25.65;11.95;;;12.60;99.90;;;;;;5067571;28;20193;-82
2021/11/09 02:37:59;;;;;;;24.90;12.57;;;12.50;99.90;;;;;;5034826;28;20056;-82
2021/11/09 02:40:27;;;;;;;28.70;11.75;;;12.60;99.90;;;;;;5030236;28;20053;-81
2021/11/09 02:43:05;;;;;;;24.92;11.85;;;12.60;99.90;;;;;;5030399;28;20049;-82
2021/11/09 02:48:30;;;;;;;26.20;11.68;;;12.60;99.90;;;;;;5068936;28;20051;-82
2021/11/09 02:51:12;;;;;;;33.28;13.07;;;12.60;99.90;;;;;;5051976;28;20052;-83
2021/11/09 02:53:51;;;;;;;32.00;13.60;;;12.60;99.90;;;;;;5085403;28;20044;-80
2021/11/09 02:56:31;;;;;;;28.70;13.38;;;12.60;99.90;;;;;;5069117;28;20044;-82
2021/11/09 03:01:38;;;;;;;31.23;14.93;;;12.60;99.90;;;;;;5069042;28;20059;-81
2021/11/09 03:04:19;;;;;;;26.38;11.82;;;12.60;99.90;;;;;;5083674;28;20059;-81
2021/11/09 03:06:57;;;;;;;;;;;12.60;99.90;;;;;;5089290;28;20048;-80
2021/11/09 03:09:41;;;;;;;26.70;11.35;;;12.60;99.90;;;;;;5072902;28;19931;-83
2021/11/09 03:12:12;;;;;;;23.88;10.55;;;12.70;99.90;;;;;;5089026;28;20055;-83
2021/11/09 03:14:41;;;;;;;22.38;10.35;;;12.60;99.90;;;;;;5055892;28;20052;-80
2021/11/09 03:17:17;;;;;;;22.20;10.93;;;12.70;99.90;;;;;;5031999;28;20055;-82
2021/11/09 03:19:50;;;;;;;24.15;9.68;;;12.70;99.90;;;;;;5048357;28;20049;-82
2021/11/09 03:44:52;;;;;;;18.00;7.53;;;12.90;99.90;;;;;;5067734;28;20048;-83
2021/11/09 03:47:21;;;;;;;15.00;7.63;;;12.90;99.90;;;;;;5085971;28;20055;-82
2021/11/09 03:49:51;;;;;;;15.32;7.55;;;12.90;99.90;;;;;;4714524;28;10000289;-80
2021/11/09 03:52:24;;;;;;;20.52;9.88;;;12.90;99.90;;;;;;5064621;28;20057;-82
2021/11/09 03:55:03;;;;;;;15.77;7.72;;;13.00;99.90;;;;;;5065836;28;20066;-81
2021/11/09 03:57:36;;;;;;;16.38;7.32;;;13.00;99.90;;;;;;5050787;28;20062;-82
2021/11/09 04:00:14;;;;;;;15.73;6.60;;;13.00;99.90;;;;;;5050872;28;20056;-83
2021/11/09 04:05:17;;;;;;;16.58;7.45;;;13.00;99.90;;;;;;5086037;28;20769;-83
2021/11/09 04:16:29;;;;;;;16.85;6.45;;;13.00;99.90;;;;;;5034639;28;20059;-80
2021/11/09 04:19:20;;;;;;;17.92;7.43;;;13.00;99.90;;;;;;5079973;28;20050;-80
2021/11/09 04:27:14;;;;;;;14.48;5.97;;;13.00;99.90;;;;;;5084175;28;20055;-83
2021/11/09 04:49:51;;;;;;;5.80;3.03;;;13.00;99.90;;;;;;5059226;28;20049;-82
2021/11/09 05:11:32;;;;;;;14.07;5.95;;;13.10;99.90;;;;;;5084024;28;20488;-80
2021/11/09 05:14:00;;;;;;;10.27;5.50;;;13.10;99.90;;;;;;5055715;28;20049;-83
2021/11/09 05:16:28;;;;;;;9.65;5.55;;;13.10;99.90;;;;;;5026823;28;20049;-81
2021/11/09 05:18:57;;;;;;;10.23;4.82;;;13.10;99.90;;;;;;5068276;28;20052;-80
2021/11/09 05:21:26;;;;;;;9.48;4.97;;;13.10;99.90;;;;;;5067117;28;20208;-80
2021/11/09 05:23:55;;;;;;;13.30;5.22;;;13.10;99.90;;;;;;5066694;28;20055;-80
2021/11/09 05:26:23;;;;;;;14.35;4.63;;;13.10;99.90;;;;;;5066239;28;20064;-84
2021/11/09 05:28:53;;;;;;;13.85;4.82;;;13.10;99.90;;;;;;5068299;28;20060;-80
2021/11/09 05:31:21;;;;;;;12.75;5.30;;;13.10;99.90;;;;;;5049515;28;20063;-80
2021/11/09 05:33:54;;;;;;;13.77;5.28;;;13.10;99.90;;;;;;5083870;28;20044;-80
2021/11/09 05:36:23;;;;;;;10.73;5.55;;;13.10;99.90;;;;;;5087529;28;20044;-81
2021/11/09 05:38:57;;;;;;;7.78;4.05;;;13.10;99.90;;;;;;5096544;28;20831;-81
2021/11/09 05:41:31;;;;;;;12.07;5.20;;;13.10;99.90;;;;;;5061720;28;20046;-83
2021/11/09 05:44:00;;;;;;;10.43;4.50;;;13.10;99.90;;;;;;5068807;28;20057;-80
2021/11/09 05:46:29;;;;;;;7.80;4.35;;;13.10;99.90;;;;;;5062835;28;20045;-80
2021/11/09 05:48:57;;;;;;;8.93;4.43;;;13.10;99.90;;;;;;5058940;28;20052;-81
2021/11/09 05:51:26;;;;;;;9.75;4.45;;;13.10;99.90;;;;;;5086588;28;20401;-81
2021/11/09 05:53:54;;;;;;;8.38;3.78;;;13.10;99.90;;;;;;4722954;28;9999780;-80
2021/11/09 05:56:22;;;;;;;9.60;3.88;;;13.10;99.90;;;;;;5063817;28;20775;-83
2021/11/09 05:58:51;;;;;;;8.73;4.35;;;13.00;99.90;;;;;;5047139;28;20056;-82
2021/11/09 06:01:19;;;;;;;7.82;3.83;;;13.00;99.90;;;;;;5075985;28;20052;-81
2021/11/09 06:03:48;;;;;;;10.13;3.92;;;13.00;99.90;;;;;;5085135;28;20049;-85
2021/11/09 06:06:16;;;;;;;7.90;4.20;;;12.50;99.90;;;;;;5093619;28;20052;-81
2021/11/09 06:08:46;;;;;;;7.13;3.53;;;13.00;99.90;;;;;;5086241;28;20047;-80
2021/11/09 06:11:15;;;;;;;17.05;5.50;;;13.00;99.90;;;;;;5097808;28;20040;-82
2021/11/09 06:13:43;;;;;;;9.05;3.58;;;13.00;99.90;;;;;;5055696;28;20120;-80
2021/11/09 06:16:11;;;;;;;10.73;4.47;;;12.90;99.90;;;;;;5095057;28;20052;-80
2021/11/09 06:18:39;;;;;;;12.38;5.20;;;12.90;99.90;;;;;;5067655;28;20391;-82
2021/11/09 06:21:08;;;;;;;10.10;5.28;;;12.90;99.90;;;;;;5066874;28;20143;-81
2021/11/09 06:23:36;;;;;;;11.35;4.68;;;12.90;99.90;;;;;;5105615;28;20059;-81
2021/11/09 06:26:04;;;;;;;6.88;3.33;;;12.90;99.90;;;;;;5043928;28;20055;-79
2021/11/09 06:28:33;;;;;;;8.60;3.50;;;12.90;99.90;;;;;;5086368;28;20060;-80
2021/11/09 06:31:01;;;;;;;10.70;4.25;;;12.90;99.90;;;;;;5071216;28;20044;-80
2021/11/09 06:33:30;;;;;;;11.18;4.57;;;12.90;99.90;;;;;;5090384;28;20051;-80
2021/11/09 06:35:58;;;;;;;10.73;3.75;;;12.90;99.90;;;;;;5058337;28;20040;-80
2021/11/09 06:38:26;;;;;;;9.60;4.30;;;12.90;99.90;;;;;;5084249;28;20048;-80
2021/11/09 06:41:01;;;;;;;10.50;3.92;;;12.90;99.90;;;;;;5059882;28;20409;-81
2021/11/09 06:43:31;;;;;;;9.15;3.53;;;12.90;99.90;;;;;;5060462;28;20059;-81
2021/11/09 06:46:00;;;;;;;10.05;3.92;;;12.90;99.90;;;;;;5100728;28;20048;-82
2021/11/09 06:48:29;;;;;;;7.22;3.47;;;12.90;99.90;;;;;;5062994;28;20069;-82
2021/11/09 06:50:59;;;;;;;6.72;3.67;;;12.90;99.90;;;;;;5086981;28;20055;-84
2021/11/09 06:53:29;;;;;;;9.07;3.35;;;13.40;99.90;;;;;;5079058;28;20059;-80
2021/11/09 06:55:57;;;;;;;8.35;4.43;;;12.90;99.90;;;;;;5047274;28;20052;-81
2021/11/09 06:58:25;;;;;;;7.35;3.15;;;12.90;99.90;;;;;;5050901;28;20048;-80
2021/11/09 07:00:53;;;;;;;6.55;3.50;;;12.90;99.90;;;;;;5035392;28;20048;-81
2021/11/09 07:03:22;;;;;;;5.22;3.05;;;12.90;99.90;;;;;;5099802;28;20056;-79
2021/11/09 07:05:50;;;;;;;9.77;3.58;;;12.90;99.90;;;;;;5050990;28;20051;-80
2021/11/09 07:08:18;;;;;;;5.95;3.60;;;12.90;99.90;;;;;;5071570;28;20048;-80
2021/11/09 07:10:47;;;;;;;14.98;3.45;;;12.80;99.90;;;;;;5085794;28;20890;-81
2021/11/09 07:13:16;;;;;;;10.63;3.35;;;12.70;99.90;;;;;;5083245;28;20040;-79
2021/11/09 07:15:44;;;;;;;6.82;2.78;;;12.70;99.90;;;;;;5088906;28;20048;-80
2021/11/09 07:18:12;;;;;;;5.80;3.05;;;12.70;99.90;;;;;;5067892;28;20059;-83
2021/11/09 07:20:50;;;;;;;7.35;2.92;;;12.60;99.90;;;;;;5075920;28;20059;-80
2021/11/09 07:23:19;;;;;;;7.88;3.00;;;12.50;99.90;;;;;;5035992;28;20467;-81
2021/11/09 07:25:48;;;;;;;7.63;3.78;;;12.50;99.90;;;;;;5070684;28;20501;-78
2021/11/09 07:28:17;;;;;;;9.38;3.33;;;12.40;99.90;;;;;;5081331;28;20055;-79
2021/11/09 07:30:55;;;;;;;7.13;3.03;;;12.40;99.90;;;;;;5032907;28;20041;-80
2021/11/09 07:33:25;;;;;;;5.22;3.08;;;12.40;99.90;;;;;;5028370;28;20071;-79
2021/11/09 07:35:52;;;;;;;7.13;3.45;;;12.30;99.90;;;;;;5080751;28;20048;-79
2021/11/09 07:38:21;;;;;;;7.10;2.92;;;12.30;99.90;;;;;;5061615;28;20055;-81
2021/11/09 07:40:49;;;;;;;7.03;3.42;;;12.30;99.90;;;;;;5078097;28;20048;-79
2021/11/09 07:43:18;;;;;;;6.15;3.53;;;12.20;99.90;;;;;;5047074;28;20048;-79
2021/11/09 07:45:47;;;;;;;5.75;2.97;;;12.20;99.90;;;;;;5073680;28;20041;-82
2021/11/09 07:48:18;;;;;;;6.75;2.70;;;12.20;99.90;;;;;;5081922;28;20041;-80
2021/11/09 07:50:50;;;;;;;9.02;3.42;;;12.20;99.90;;;;;;5060843;28;20053;-81
2021/11/09 07:53:23;;;;;;;6.63;3.05;;;12.20;99.90;;;;;;5064714;28;20044;-78
2021/11/09 07:56:09;;;;;;;10.30;3.25;;;12.10;99.90;;;;;;5046763;28;20092;-78
2021/11/09 07:59:12;;;;;;;11.77;2.83;;;12.10;99.90;;;;;;5076813;28;20040;-81
2021/11/09 08:02:00;;;;;;;7.13;3.45;;;12.10;99.90;;;;;;5046119;28;20056;-79
2021/11/09 08:04:24;;;;;;;7.05;3.33;;;12.10;99.90;;;;;;5062875;28;20048;-79
2021/11/09 08:06:58;;;;;;;30.60;5.75;;;12.10;99.90;;;;;;5061663;28;20052;-83
2021/11/09 08:09:29;;;;;;;15.70;5.60;;;12.00;99.90;;;;;;5061314;28;20048;-80
2021/11/09 08:12:03;;;;;;;8.90;3.45;;;12.10;99.90;;;;;;5048419;28;20052;-82
2021/11/09 08:14:32;;;;;;;8.23;4.10;;;12.10;99.90;;;;;;5062402;28;20044;-81
2021/11/09 08:17:01;;;;;;;8.80;3.17;;;12.10;99.90;;;;;;5047793;28;20041;-83
2021/11/09 08:19:30;;;;;;;10.45;3.88;;;12.10;99.90;;;;;;5061612;28;20041;-84
2021/11/09 08:22:00;;;;;;;12.32;3.33;;;12.10;99.90;;;;;;5079444;28;20052;-82
2021/11/09 08:24:30;;;;;;;;;;;12.10;99.90;;;;;;5064020;28;20036;-85
2021/11/09 08:27:28;;;;;;;4.85;2.38;;;12.10;99.90;;;;;;5061119;28;20281;-81
2021/11/09 08:30:46;;;;;;;;;;;;;;;;;;;;;
2021/11/09 08:34:40;;;;;;;6.25;2.10;;;12.30;99.90;;;;;;5113735;28;19924;-89
2021/11/09 08:41:48;;;;;;;3.88;1.98;;;12.40;99.90;;;;;;5095207;28;20054;-88
2021/11/09 08:45:20;;;;;;;3.10;1.20;;;11.40;99.90;;;;;;5084564;28;20059;-84
2021/11/09 08:48:04;;;;;;;;;;;;;;;;;;;;;
2021/11/09 08:51:15;;;;;;;4.82;1.45;;;12.60;99.90;;;;;;5099968;28;20054;-87
2021/11/09 08:54:07;;;;;;;;;;;;;;;;;;;;;
2021/11/09 09:05:48;;;;;;;15.18;1.70;;;12.70;99.90;;;;;;5104194;28;20040;-86
2021/11/09 09:08:33;;;;;;;4.50;1.45;;;13.20;99.90;;;;;;5103235;28;20048;-86
2021/11/09 09:11:10;;;;;;;1.73;1.52;;;12.80;99.90;;;;;;5100490;28;20052;-83
2021/11/09 09:14:54;;;;;;;;;;;;;;;;;;;;;
2021/11/09 09:18:04;;;;;;;6.35;1.88;;;13.70;99.90;;;;;;5099280;28;20047;-88
2021/11/09 09:20:56;;;;;;;5.72;1.80;;;12.60;99.90;;;;;;5104200;28;20039;-85
2021/11/09 09:23:40;;;;;;;3.90;1.20;;;13.00;99.90;;;;;;5102649;28;20055;-84
2021/11/09 09:29:38;;;;;;;6.57;2.35;;;13.00;99.90;;;;;;5101856;28;20079;-84
2021/11/09 09:56:43;;;;;;;3.67;1.15;;;14.40;99.90;;;;;;5097982;28;20353;-85
2021/11/09 09:59:11;;;;;;;2.63;1.40;;;13.60;99.90;;;;;;5099598;28;20063;-83
2021/11/09 10:02:12;;;;;;;3.95;1.20;;;12.70;99.90;;;;;;5081788;28;20043;-84
2021/11/09 10:05:01;;;;;;;3.47;1.10;;;13.70;99.90;;;;;;5098900;28;20044;-86
2021/11/09 10:07:35;;;;;;;1.83;1.10;;;14.00;99.90;;;;;;5097109;28;20744;-83
2021/11/09 10:10:21;;;;;;;3.58;1.60;;;13.80;99.90;;;;;;5097354;28;20045;-86
2021/11/09 10:13:23;;;;;;;7.43;0.90;;;13.90;99.90;;;;;;5098267;28;20047;-87
2021/11/09 10:16:06;;;;;;;8.40;1.70;;;13.90;99.90;;;;;;5095760;28;20048;-84
2021/11/09 10:21:40;;;;;;;2.63;1.40;;;14.10;99.90;;;;;;5099396;28;20054;-86
2021/11/09 10:24:39;;;;;;;5.70;1.10;;;14.20;99.90;;;;;;5074741;28;20048;-83
2021/11/09 10:27:20;;;;;;;2.60;1.40;;;14.10;99.90;;;;;;5065922;28;20063;-83
2021/11/09 10:30:30;;;;;;;1.80;1.33;;;14.20;99.90;;;;;;5081243;28;20092;-85
2021/11/09 10:33:04;;;;;;;2.65;1.27;;;14.30;99.90;;;;;;5098625;28;20058;-83
2021/11/09 10:35:33;;;;;;;2.53;1.40;;;14.30;99.90;;;;;;5066977;28;20074;-82
2021/11/09 10:38:03;;;;;;;2.50;1.33;;;15.20;99.90;;;;;;5084790;28;20056;-83
2021/11/09 10:40:42;;;;;;;2.20;1.33;;;14.50;99.90;;;;;;5099868;28;20058;-84
2021/11/09 10:43:35;;;;;;;7.13;1.40;;;15.50;99.90;;;;;;5100578;28;20048;-85
2021/11/09 10:46:07;;;;;;;3.20;1.30;;;14.70;99.90;;;;;;5101243;28;20044;-85
2021/11/09 10:48:43;;;;;;;2.63;1.70;;;14.60;99.90;;;;;;5067995;28;20048;-85
2021/11/09 10:51:13;;;;;;;7.65;1.98;;;14.60;99.90;;;;;;5102441;28;20056;-83
2021/11/09 10:53:58;;;;;;;1.73;1.43;;;14.60;99.90;;;;;;5103987;28;20058;-83
2021/11/09 10:57:08;;;;;;;7.18;1.80;;;15.20;99.90;;;;;;5101629;28;20493;-86
2021/11/09 11:00:55;;;;;;;3.20;1.48;;;14.60;99.90;;;;;;4762360;28;10000106;-84
2021/11/09 11:05:38;;;;;;;3.58;1.48;;;14.70;99.90;;;;;;5113797;28;20040;-85
2021/11/09 11:08:17;;;;;;;3.72;1.60;;;14.70;99.90;;;;;;5118955;28;20051;-85
2021/11/09 11:11:30;;;;;;;7.57;1.95;;;14.80;99.90;;;;;;5070981;28;20037;-84
2021/11/09 11:14:18;;;;;;;1.67;1.30;;;14.90;99.90;;;;;;5098830;28;20052;-84
2021/11/09 11:17:16;;;;;;;3.83;0.95;;;14.90;99.90;;;;;;5099003;28;20048;-85
2021/11/09 11:20:00;;;;;;;8.23;1.55;;;15.00;99.90;;;;;;5086787;28;20126;-82
2021/11/09 11:22:39;;;;;;;;;;;;;;;;;;;;;
2021/11/09 11:25:14;;;;;;;4.00;1.75;;;15.00;99.90;;;;;;5100154;28;20051;-82
2021/11/09 11:27:43;;;;;;;6.03;1.35;;;15.00;99.90;;;;;;5097617;28;20056;-83
2021/11/09 11:30:39;;;;;;;;;;;;;;;;;;;;;
2021/11/09 11:33:34;;;;;;;4.38;1.63;;;15.00;99.90;;;;;;5103186;28;20038;-84
2021/11/09 11:36:05;;;;;;;7.38;1.92;;;15.10;99.90;;;;;;5102475;28;20666;-84
2021/11/09 11:38:36;;;;;;;4.53;2.17;;;15.20;99.90;;;;;;5087523;28;20047;-83
2021/11/09 11:41:05;;;;;;;5.45;1.83;;;15.20;99.90;;;;;;5102373;28;20064;-85
2021/11/09 11:43:47;;;;;;;1.73;1.33;;;15.20;99.90;;;;;;5101411;28;20044;-81
2021/11/09 11:46:33;;;;;;;1.70;1.15;;;14.60;99.90;;;;;;5099668;28;20041;-85
2021/11/09 11:49:36;;;;;;;2.08;0.88;;;15.20;99.90;;;;;;5081382;28;20048;-84
2021/11/09 11:52:15;;;;;;;3.35;0.80;;;16.00;99.90;;;;;;5069684;28;20047;-84
2021/11/09 11:55:21;;;;;;;2.10;1.48;;;15.20;99.90;;;;;;5096681;28;20051;-83
2021/11/09 11:58:16;;;;;;;4.55;1.15;;;15.20;99.90;;;;;;5083510;28;20047;-82
2021/11/09 12:00:56;;;;;;;1.43;1.00;;;15.30;99.90;;;;;;5099713;28;20686;-84
2021/11/09 12:03:32;;;;;;;1.30;0.75;;;15.20;99.90;;;;;;5095900;28;20297;-84
2021/11/09 12:06:23;;;;;;;1.88;0.77;;;15.30;99.90;;;;;;5116763;28;20052;-84
2021/11/09 12:08:56;;;;;;;2.42;1.05;;;15.20;99.90;;;;;;5081619;28;20059;-84
2021/11/09 12:11:26;;;;;;;2.13;1.10;;;15.20;99.90;;;;;;5098486;28;20053;-82
2021/11/09 12:14:15;;;;;;;2.40;1.30;;;15.20;99.90;;;;;;5099508;28;20052;-84
2021/11/09 12:16:53;;;;;;;1.77;1.17;;;15.20;99.90;;;;;;5100589;28;20052;-86
2021/11/09 12:19:34;;;;;;;1.80;1.00;;;15.20;99.90;;;;;;5100112;28;20530;-80
2021/11/09 12:22:36;;;;;;;4.07;1.08;;;16.80;99.90;;;;;;5086622;28;20403;-84
2021/11/09 12:25:42;;;;;;;1.63;0.90;;;15.20;99.90;;;;;;5081713;28;20451;-85
2021/11/09 12:28:12;;;;;;;4.32;1.20;;;16.40;99.90;;;;;;5102236;28;20036;-84
2021/11/09 12:30:50;;;;;;;5.95;1.35;;;15.50;99.90;;;;;;5084535;28;20066;-83
2021/11/09 12:33:28;;;;;;;1.75;0.90;;;15.60;99.90;;;;;;5101142;28;20066;-81
2021/11/09 12:36:13;;;;;;;3.72;1.50;;;15.70;99.90;;;;;;5107027;28;20048;-86
2021/11/09 12:38:49;;;;;;;2.65;1.33;;;15.50;99.90;;;;;;5100035;28;20397;-85
2021/11/09 12:41:21;;;;;;;1.58;0.80;;;15.60;99.90;;;;;;5101735;28;20052;-84
2021/11/09 12:43:57;;;;;;;2.22;1.08;;;15.50;99.90;;;;;;5086221;28;20040;-84
2021/11/09 12:46:37;;;;;;;2.40;1.10;;;15.50;99.90;;;;;;5102680;28;20052;-84
2021/11/09 12:49:16;;;;;;;9.07;1.50;;;15.50;99.90;;;;;;5117746;28;20208;-84
2021/11/09 12:52:14;;;;;;;3.50;1.40;;;15.50;99.90;;;;;;5100265;28;20036;-84
2021/11/09 12:55:00;;;;;;;3.15;1.45;;;15.60;99.90;;;;;;5086713;28;20047;-85
2021/11/09 12:57:36;;;;;;;2.90;1.00;;;15.60;99.90;;;;;;5098356;28;20040;-82
2021/11/09 13:00:13;;;;;;;5.38;1.40;;;15.70;99.90;;;;;;5102182;28;20046;-86
2021/11/09 13:02:51;;;;;;;2.15;1.33;;;15.70;99.90;;;;;;5098899;28;20044;-84
2021/11/09 13:05:52;;;;;;;2.35;1.33;;;15.70;99.90;;;;;;5082680;28;20052;-83
2021/11/09 13:08:41;;;;;;;5.50;1.20;;;15.60;99.90;;;;;;5097095;28;20043;-83
2021/11/09 13:11:38;;;;;;;8.35;1.90;;;15.70;99.90;;;;;;5067876;28;20066;-84
2021/11/09 13:14:17;;;;;;;11.38;3.00;;;15.80;99.90;;;;;;5093797;28;20047;-84
2021/11/09 13:17:22;;;;;;;10.60;2.80;;;15.90;99.90;;;;;;5101613;28;20028;-81
2021/11/09 13:20:53;;;;;;;8.80;2.03;;;16.30;99.90;;;;;;5098111;28;20067;-84
2021/11/09 13:23:13;;;;;;;6.30;1.40;;;15.60;99.90;;;;;;5087937;28;20047;-84
2021/11/09 13:25:55;;;;;;;3.90;1.52;;;15.60;99.90;;;;;;5098714;28;20040;-85
2021/11/09 13:28:38;;;;;;;3.47;1.38;;;15.50;99.90;;;;;;5108934;28;20060;-84
2021/11/09 13:31:20;;;;;;;7.78;2.35;;;15.40;99.90;;;;;;5099103;28;20044;-84
2021/11/09 13:34:24;;;;;;;4.00;1.20;;;15.40;99.90;;;;;;5083532;28;20052;-86
2021/11/09 13:36:59;;;;;;;5.75;1.95;;;15.40;99.90;;;;;;5081965;28;20040;-82
2021/11/09 13:39:46;;;;;;;20.08;8.18;;;15.50;99.90;;;;;;5097742;28;20059;-82
2021/11/09 13:42:34;;;;;;;7.60;1.88;;;15.30;99.90;;;;;;5081679;28;20059;-83
2021/11/09 13:45:11;;;;;;;3.08;1.27;;;15.30;99.90;;;;;;5081402;28;20055;-83
2021/11/09 13:48:01;;;;;;;;;;;;;;;;;;;;;
2021/11/09 13:50:44;;;;;;;4.22;1.30;;;14.40;99.90;;;;;;5098299;28;20044;-85
2021/11/09 13:53:40;;;;;;;;;;;;;;;;;;;;;
2021/11/09 13:56:28;;;;;;;1.80;1.30;;;15.30;99.90;;;;;;5096328;28;20056;-88
2021/11/09 13:59:04;;;;;;;2.80;1.80;;;15.30;99.90;;;;;;5080996;28;20045;-82
2021/11/09 14:01:48;;;;;;;2.25;1.35;;;15.30;99.90;;;;;;5100483;28;20049;-83
2021/11/09 14:08:10;;;;;;;1.95;1.25;;;15.20;99.90;;;;;;5096275;28;20052;-84
2021/11/09 14:15:18;;;;;;;5.50;1.80;;;15.20;99.90;;;;;;5093734;28;20491;-84
2021/11/09 14:17:52;;;;;;;3.08;1.52;;;15.10;99.90;;;;;;5100159;28;20058;-82
2021/11/09 14:20:55;;;;;;;2.78;1.40;;;15.10;99.90;;;;;;5102563;28;20056;-79
2021/11/09 14:23:44;;;;;;;;;;;15.10;99.90;;;;;;5095785;28;20056;-80
2021/11/09 14:26:29;;;;;;;3.55;1.70;;;15.60;99.90;;;;;;5101169;28;20375;-82
2021/11/09 14:29:21;;;;;;;4.88;1.35;;;15.00;99.90;;;;;;5084555;28;20051;-85
2021/11/09 14:32:13;;;;;;;;;;;;;;;;;;;;;
2021/11/09 14:35:25;;;;;;;2.03;1.33;;;15.00;99.90;;;;;;5102893;28;20048;-83
2021/11/09 14:38:09;;;;;;;3.25;1.85;;;15.00;99.90;;;;;;5085334;28;20048;-82
2021/11/09 14:40:58;;;;;;;4.78;2.22;;;15.00;99.90;;;;;;5082815;28;20044;-81
2021/11/09 14:44:17;;;;;;;5.15;1.88;;;14.90;99.90;;;;;;5091396;28;20040;-84
2021/11/09 14:46:49;;;;;;;5.28;2.05;;;14.90;99.90;;;;;;5098050;28;20068;-85
2021/11/09 14:53:46;;;;;;;5.10;2.72;;;14.80;99.90;;;;;;5101971;28;20052;-87
2021/11/09 14:56:38;;;;;;;4.85;2.53;;;14.60;99.90;;;;;;5102096;28;20044;-85
2021/11/09 14:59:15;;;;;;;8.63;2.65;;;14.90;99.90;;;;;;5083837;28;20043;-81
2021/11/09 15:01:59;;;;;;;5.75;2.88;;;14.90;99.90;;;;;;5085098;28;20040;-85
2021/11/09 15:04:44;;;;;;;5.88;3.17;;;15.00;99.90;;;;;;5099523;28;20047;-82
2021/11/09 15:07:40;;;;;;;5.32;2.15;;;15.00;99.90;;;;;;5086330;28;20050;-81
2021/11/09 15:39:43;;;;;;;2.08;0.90;;;15.10;99.90;;;;;;5059856;28;20052;-84
2021/11/09 15:42:13;;;;;;;4.43;1.38;;;15.00;99.90;;;;;;5068310;28;20041;-86
2021/11/09 15:44:42;;;;;;;2.05;1.63;;;15.00;99.90;;;;;;5076273;28;20062;-87
2021/11/09 15:47:13;;;;;;;3.65;1.75;;;14.90;99.90;;;;;;5094994;28;20048;-86
2021/11/09 15:49:44;;;;;;;3.22;1.17;;;14.90;99.90;;;;;;5077836;28;20237;-90
2021/11/09 15:52:17;;;;;;;1.95;0.85;;;14.80;99.90;;;;;;5073314;28;20036;-90
2021/11/09 15:54:51;;;;;;;5.93;1.30;;;14.80;99.90;;;;;;5072501;28;20040;-87
2021/11/09 15:57:21;;;;;;;6.03;1.15;;;14.70;99.90;;;;;;5074390;28;20048;-87
2021/11/09 15:59:51;;;;;;;3.30;1.17;;;15.10;99.90;;;;;;5041038;28;20041;-85
2021/11/09 16:02:25;;;;;;;3.35;1.33;;;14.60;99.90;;;;;;5072179;28;20056;-86
2021/11/09 16:05:08;;;;;;;5.07;1.38;;;14.50;99.90;;;;;;5070555;28;20051;-85
2021/11/09 16:07:51;;;;;;;2.90;1.00;;;14.40;99.90;;;;;;5060393;28;20055;-88
2021/11/09 16:10:27;;;;;;;4.85;1.23;;;14.30;99.90;;;;;;5093827;28;20047;-90
2021/11/09 16:12:56;;;;;;;3.85;1.17;;;14.20;99.90;;;;;;5069883;28;20044;-91
2021/11/09 16:15:26;;;;;;;2.53;1.02;;;14.10;99.90;;;;;;5074202;28;20534;-88
2021/11/09 16:17:55;;;;;;;2.53;1.23;;;14.10;99.90;;;;;;5057171;28;20040;-90
2021/11/09 16:20:27;;;;;;;6.10;2.10;;;14.00;99.90;;;;;;5091388;28;20039;-88
2021/11/09 16:22:58;;;;;;;3.45;1.40;;;14.00;99.90;;;;;;5074050;28;20072;-88
2021/11/09 16:25:27;;;;;;;4.78;1.30;;;14.00;99.90;;;;;;5072970;28;20081;-89
2021/11/09 16:27:56;;;;;;;6.90;1.40;;;13.90;99.90;;;;;;5071861;28;20051;-89
2021/11/09 16:30:27;;;;;;;5.65;1.40;;;13.40;99.90;;;;;;5053977;28;20055;-88
2021/11/09 16:33:00;;;;;;;3.75;1.70;;;13.90;99.90;;;;;;5092135;28;20451;-88
2021/11/09 16:35:39;;;;;;;7.22;2.00;;;13.80;99.90;;;;;;5066686;28;20052;-88
2021/11/09 16:38:14;;;;;;;7.53;2.33;;;13.80;99.90;;;;;;5089062;28;20067;-89